sensor_id;sensor_type;location;lat;lon;timestamp;P1;durP1;ratioP1;P2;durP2;ratioP2
5967;SDS011;3010;51.028;4.170;2022-09-29T00:00:05;15.50;;;12.90;;
5967;SDS011;3010;51.028;4.170;2022-09-29T00:02:31;15.30;;;12.47;;
5967;SDS011;3010;51.028;4.170;2022-09-29T00:04:58;17.70;;;13.83;;
5967;SDS011;3010;51.028;4.170;2022-09-29T00:07:25;15.03;;;12.87;;
5967;SDS011;3010;51.028;4.170;2022-09-29T00:09:51;20.48;;;16.48;;
5967;SDS011;3010;51.028;4.170;2022-09-29T00:12:18;18.47;;;14.17;;
5967;SDS011;3010;51.028;4.170;2022-09-29T00:14:44;19.43;;;13.70;;
5967;SDS011;3010;51.028;4.170;2022-09-29T00:17:11;16.87;;;13.77;;
5967;SDS011;3010;51.028;4.170;2022-09-29T00:19:38;16.33;;;13.07;;
5967;SDS011;3010;51.028;4.170;2022-09-29T00:22:04;17.50;;;14.13;;
5967;SDS011;3010;51.028;4.170;2022-09-29T00:24:31;21.95;;;17.95;;
5967;SDS011;3010;51.028;4.170;2022-09-29T00:26:57;17.80;;;15.90;;
5967;SDS011;3010;51.028;4.170;2022-09-29T00:29:24;22.37;;;15.70;;
5967;SDS011;3010;51.028;4.170;2022-09-29T00:31:51;22.50;;;19.05;;
5967;SDS011;3010;51.028;4.170;2022-09-29T00:34:19;19.67;;;17.23;;
5967;SDS011;3010;51.028;4.170;2022-09-29T00:36:47;21.10;;;16.47;;
5967;SDS011;3010;51.028;4.170;2022-09-29T00:39:13;19.80;;;16.80;;
5967;SDS011;3010;51.028;4.170;2022-09-29T00:41:40;19.90;;;16.47;;
5967;SDS011;3010;51.028;4.170;2022-09-29T00:47:13;23.33;;;15.70;;
5967;SDS011;3010;51.028;4.170;2022-09-29T00:49:38;22.77;;;17.30;;
5967;SDS011;3010;51.028;4.170;2022-09-29T00:54:43;19.07;;;15.93;;
5967;SDS011;3010;51.028;4.170;2022-09-29T00:57:12;21.73;;;16.90;;
5967;SDS011;3010;51.028;4.170;2022-09-29T00:59:39;21.83;;;18.55;;
5967;SDS011;3010;51.028;4.170;2022-09-29T01:02:22;17.27;;;15.50;;
5967;SDS011;3010;51.028;4.170;2022-09-29T01:04:49;20.90;;;17.87;;
5967;SDS011;3010;51.028;4.170;2022-09-29T01:07:16;17.53;;;14.90;;
5967;SDS011;3010;51.028;4.170;2022-09-29T01:09:42;18.13;;;14.27;;
5967;SDS011;3010;51.028;4.170;2022-09-29T01:12:09;18.53;;;14.13;;
5967;SDS011;3010;51.028;4.170;2022-09-29T01:14:36;16.57;;;14.10;;
5967;SDS011;3010;51.028;4.170;2022-09-29T01:17:02;15.67;;;12.93;;
5967;SDS011;3010;51.028;4.170;2022-09-29T01:19:29;15.60;;;13.87;;
5967;SDS011;3010;51.028;4.170;2022-09-29T01:31:01;17.63;;;13.80;;
5967;SDS011;3010;51.028;4.170;2022-09-29T01:34:06;15.80;;;13.83;;
5967;SDS011;3010;51.028;4.170;2022-09-29T01:39:06;17.63;;;13.40;;
5967;SDS011;3010;51.028;4.170;2022-09-29T01:44:05;15.50;;;13.90;;
5967;SDS011;3010;51.028;4.170;2022-09-29T01:49:11;20.00;;;14.33;;
5967;SDS011;3010;51.028;4.170;2022-09-29T01:51:43;16.90;;;14.47;;
5967;SDS011;3010;51.028;4.170;2022-09-29T01:54:09;16.43;;;14.37;;
5967;SDS011;3010;51.028;4.170;2022-09-29T01:56:35;19.60;;;13.97;;
5967;SDS011;3010;51.028;4.170;2022-09-29T01:59:09;18.60;;;14.73;;
5967;SDS011;3010;51.028;4.170;2022-09-29T02:01:33;18.33;;;15.37;;
5967;SDS011;3010;51.028;4.170;2022-09-29T02:04:10;22.83;;;15.03;;
5967;SDS011;3010;51.028;4.170;2022-09-29T02:06:31;19.70;;;17.70;;
5967;SDS011;3010;51.028;4.170;2022-09-29T02:08:53;21.05;;;17.55;;
5967;SDS011;3010;51.028;4.170;2022-09-29T02:11:18;16.63;;;14.83;;
5967;SDS011;3010;51.028;4.170;2022-09-29T02:13:50;16.13;;;14.07;;
5967;SDS011;3010;51.028;4.170;2022-09-29T02:16:16;18.77;;;14.77;;
5967;SDS011;3010;51.028;4.170;2022-09-29T02:18:44;18.67;;;14.33;;
5967;SDS011;3010;51.028;4.170;2022-09-29T02:21:07;18.03;;;14.47;;
5967;SDS011;3010;51.028;4.170;2022-09-29T02:23:34;17.23;;;14.70;;
5967;SDS011;3010;51.028;4.170;2022-09-29T02:26:01;16.90;;;13.90;;
5967;SDS011;3010;51.028;4.170;2022-09-29T02:28:27;19.20;;;14.47;;
5967;SDS011;3010;51.028;4.170;2022-09-29T02:30:54;20.20;;;15.20;;
5967;SDS011;3010;51.028;4.170;2022-09-29T02:33:21;16.53;;;14.40;;
5967;SDS011;3010;51.028;4.170;2022-09-29T02:35:57;20.13;;;14.60;;
5967;SDS011;3010;51.028;4.170;2022-09-29T02:38:40;16.93;;;14.73;;
5967;SDS011;3010;51.028;4.170;2022-09-29T02:40:56;23.33;;;19.42;;
5967;SDS011;3010;51.028;4.170;2022-09-29T02:43:43;19.20;;;15.67;;
5967;SDS011;3010;51.028;4.170;2022-09-29T02:46:27;20.70;;;15.37;;
5967;SDS011;3010;51.028;4.170;2022-09-29T02:49:18;20.20;;;15.70;;
5967;SDS011;3010;51.028;4.170;2022-09-29T02:51:47;21.90;;;15.63;;
5967;SDS011;3010;51.028;4.170;2022-09-29T02:54:38;20.73;;;15.30;;
5967;SDS011;3010;51.028;4.170;2022-09-29T02:57:22;18.17;;;14.77;;
5967;SDS011;3010;51.028;4.170;2022-09-29T02:59:50;20.40;;;15.40;;
5967;SDS011;3010;51.028;4.170;2022-09-29T03:02:24;20.17;;;15.67;;
5967;SDS011;3010;51.028;4.170;2022-09-29T03:04:50;18.27;;;15.50;;
5967;SDS011;3010;51.028;4.170;2022-09-29T03:07:17;20.93;;;16.13;;
5967;SDS011;3010;51.028;4.170;2022-09-29T03:09:43;22.17;;;16.63;;
5967;SDS011;3010;51.028;4.170;2022-09-29T03:12:10;27.50;;;16.57;;
5967;SDS011;3010;51.028;4.170;2022-09-29T03:14:36;22.03;;;17.30;;
5967;SDS011;3010;51.028;4.170;2022-09-29T03:17:03;28.33;;;17.20;;
5967;SDS011;3010;51.028;4.170;2022-09-29T03:19:29;25.57;;;16.93;;
5967;SDS011;3010;51.028;4.170;2022-09-29T03:21:56;21.17;;;16.23;;
5967;SDS011;3010;51.028;4.170;2022-09-29T03:24:23;20.50;;;15.87;;
5967;SDS011;3010;51.028;4.170;2022-09-29T03:26:49;29.27;;;17.00;;
5967;SDS011;3010;51.028;4.170;2022-09-29T03:29:16;20.80;;;16.77;;
5967;SDS011;3010;51.028;4.170;2022-09-29T03:31:42;23.03;;;17.27;;
5967;SDS011;3010;51.028;4.170;2022-09-29T03:34:09;22.93;;;16.63;;
5967;SDS011;3010;51.028;4.170;2022-09-29T03:36:36;22.70;;;16.47;;
5967;SDS011;3010;51.028;4.170;2022-09-29T03:39:02;22.03;;;16.80;;
5967;SDS011;3010;51.028;4.170;2022-09-29T03:41:29;23.23;;;17.03;;
5967;SDS011;3010;51.028;4.170;2022-09-29T03:43:55;24.27;;;17.33;;
5967;SDS011;3010;51.028;4.170;2022-09-29T03:46:22;25.00;;;17.27;;
5967;SDS011;3010;51.028;4.170;2022-09-29T03:48:49;21.33;;;16.70;;
5967;SDS011;3010;51.028;4.170;2022-09-29T03:51:15;20.97;;;17.00;;
5967;SDS011;3010;51.028;4.170;2022-09-29T03:53:42;22.70;;;17.20;;
5967;SDS011;3010;51.028;4.170;2022-09-29T03:56:08;21.43;;;16.90;;
5967;SDS011;3010;51.028;4.170;2022-09-29T03:58:35;21.37;;;17.23;;
5967;SDS011;3010;51.028;4.170;2022-09-29T04:01:01;24.93;;;18.83;;
5967;SDS011;3010;51.028;4.170;2022-09-29T04:03:28;23.80;;;17.43;;
5967;SDS011;3010;51.028;4.170;2022-09-29T04:05:56;19.60;;;16.50;;
5967;SDS011;3010;51.028;4.170;2022-09-29T04:08:22;25.90;;;17.20;;
5967;SDS011;3010;51.028;4.170;2022-09-29T04:10:49;26.37;;;17.63;;
5967;SDS011;3010;51.028;4.170;2022-09-29T04:13:16;27.30;;;17.07;;
5967;SDS011;3010;51.028;4.170;2022-09-29T04:15:42;22.87;;;16.10;;
5967;SDS011;3010;51.028;4.170;2022-09-29T04:18:09;21.23;;;16.77;;
5967;SDS011;3010;51.028;4.170;2022-09-29T04:23:02;26.20;;;17.97;;
5967;SDS011;3010;51.028;4.170;2022-09-29T04:25:29;28.87;;;16.67;;
5967;SDS011;3010;51.028;4.170;2022-09-29T04:27:55;26.50;;;18.03;;
5967;SDS011;3010;51.028;4.170;2022-09-29T04:30:22;34.80;;;25.10;;
5967;SDS011;3010;51.028;4.170;2022-09-29T04:32:48;27.50;;;19.80;;
5967;SDS011;3010;51.028;4.170;2022-09-29T04:35:15;23.97;;;17.93;;
5967;SDS011;3010;51.028;4.170;2022-09-29T04:37:42;26.63;;;18.87;;
5967;SDS011;3010;51.028;4.170;2022-09-29T04:40:08;24.73;;;18.13;;
5967;SDS011;3010;51.028;4.170;2022-09-29T04:42:35;25.67;;;17.60;;
5967;SDS011;3010;51.028;4.170;2022-09-29T04:45:01;24.17;;;16.87;;
5967;SDS011;3010;51.028;4.170;2022-09-29T04:47:28;25.77;;;17.67;;
5967;SDS011;3010;51.028;4.170;2022-09-29T04:49:54;25.93;;;18.23;;
5967;SDS011;3010;51.028;4.170;2022-09-29T04:52:21;26.23;;;17.30;;
5967;SDS011;3010;51.028;4.170;2022-09-29T04:54:48;29.73;;;18.07;;
5967;SDS011;3010;51.028;4.170;2022-09-29T04:57:14;24.57;;;17.50;;
5967;SDS011;3010;51.028;4.170;2022-09-29T04:59:41;24.73;;;17.90;;
5967;SDS011;3010;51.028;4.170;2022-09-29T05:02:07;26.57;;;18.13;;
5967;SDS011;3010;51.028;4.170;2022-09-29T05:04:34;33.53;;;24.45;;
5967;SDS011;3010;51.028;4.170;2022-09-29T05:07:01;32.33;;;18.80;;
5967;SDS011;3010;51.028;4.170;2022-09-29T05:09:27;27.43;;;18.73;;
5967;SDS011;3010;51.028;4.170;2022-09-29T05:11:54;33.57;;;19.93;;
5967;SDS011;3010;51.028;4.170;2022-09-29T05:14:20;30.92;;;23.20;;
5967;SDS011;3010;51.028;4.170;2022-09-29T05:16:47;29.03;;;19.77;;
5967;SDS011;3010;51.028;4.170;2022-09-29T05:19:14;28.10;;;18.53;;
5967;SDS011;3010;51.028;4.170;2022-09-29T05:21:40;27.13;;;19.60;;
5967;SDS011;3010;51.028;4.170;2022-09-29T05:24:07;26.67;;;17.73;;
5967;SDS011;3010;51.028;4.170;2022-09-29T05:26:33;21.83;;;16.97;;
5967;SDS011;3010;51.028;4.170;2022-09-29T05:29:00;28.43;;;17.80;;
5967;SDS011;3010;51.028;4.170;2022-09-29T05:31:26;29.20;;;18.90;;
5967;SDS011;3010;51.028;4.170;2022-09-29T05:33:54;28.77;;;20.00;;
5967;SDS011;3010;51.028;4.170;2022-09-29T05:36:20;29.60;;;18.63;;
5967;SDS011;3010;51.028;4.170;2022-09-29T05:38:46;22.63;;;17.60;;
5967;SDS011;3010;51.028;4.170;2022-09-29T05:41:13;29.80;;;17.90;;
5967;SDS011;3010;51.028;4.170;2022-09-29T05:43:39;30.87;;;18.67;;
5967;SDS011;3010;51.028;4.170;2022-09-29T05:46:07;30.10;;;18.03;;
5967;SDS011;3010;51.028;4.170;2022-09-29T05:48:33;28.03;;;18.23;;
5967;SDS011;3010;51.028;4.170;2022-09-29T05:51:05;34.58;;;24.52;;
5967;SDS011;3010;51.028;4.170;2022-09-29T05:53:26;30.53;;;19.93;;
5967;SDS011;3010;51.028;4.170;2022-09-29T05:55:52;35.38;;;25.42;;
5967;SDS011;3010;51.028;4.170;2022-09-29T05:58:19;26.20;;;19.70;;
5967;SDS011;3010;51.028;4.170;2022-09-29T06:00:46;31.55;;;22.92;;
5967;SDS011;3010;51.028;4.170;2022-09-29T06:03:12;30.77;;;20.10;;
5967;SDS011;3010;51.028;4.170;2022-09-29T06:05:39;27.30;;;18.77;;
5967;SDS011;3010;51.028;4.170;2022-09-29T06:08:05;25.27;;;17.27;;
5967;SDS011;3010;51.028;4.170;2022-09-29T06:10:32;28.27;;;17.67;;
5967;SDS011;3010;51.028;4.170;2022-09-29T06:12:59;27.63;;;17.43;;
5967;SDS011;3010;51.028;4.170;2022-09-29T06:15:25;28.90;;;18.83;;
5967;SDS011;3010;51.028;4.170;2022-09-29T06:17:55;30.65;;;22.98;;
5967;SDS011;3010;51.028;4.170;2022-09-29T06:20:21;30.77;;;18.73;;
5967;SDS011;3010;51.028;4.170;2022-09-29T06:22:48;27.33;;;18.47;;
5967;SDS011;3010;51.028;4.170;2022-09-29T06:25:14;28.53;;;17.90;;
5967;SDS011;3010;51.028;4.170;2022-09-29T06:27:41;32.30;;;17.53;;
5967;SDS011;3010;51.028;4.170;2022-09-29T06:30:08;30.87;;;18.57;;
5967;SDS011;3010;51.028;4.170;2022-09-29T06:32:35;32.37;;;18.50;;
5967;SDS011;3010;51.028;4.170;2022-09-29T06:35:01;25.70;;;18.53;;
5967;SDS011;3010;51.028;4.170;2022-09-29T06:37:46;27.67;;;17.80;;
5967;SDS011;3010;51.028;4.170;2022-09-29T06:40:13;26.60;;;18.10;;
5967;SDS011;3010;51.028;4.170;2022-09-29T06:42:39;28.67;;;18.43;;
5967;SDS011;3010;51.028;4.170;2022-09-29T06:45:06;29.90;;;18.53;;
5967;SDS011;3010;51.028;4.170;2022-09-29T06:47:33;26.13;;;18.37;;
5967;SDS011;3010;51.028;4.170;2022-09-29T06:49:59;31.60;;;19.57;;
5967;SDS011;3010;51.028;4.170;2022-09-29T06:52:26;27.20;;;18.77;;
5967;SDS011;3010;51.028;4.170;2022-09-29T06:54:52;34.53;;;19.23;;
5967;SDS011;3010;51.028;4.170;2022-09-29T06:57:19;31.43;;;19.17;;
5967;SDS011;3010;51.028;4.170;2022-09-29T06:59:45;36.53;;;25.12;;
5967;SDS011;3010;51.028;4.170;2022-09-29T07:02:12;33.20;;;21.77;;
5967;SDS011;3010;51.028;4.170;2022-09-29T07:04:39;28.77;;;19.93;;
5967;SDS011;3010;51.028;4.170;2022-09-29T07:07:05;28.57;;;19.67;;
5967;SDS011;3010;51.028;4.170;2022-09-29T07:09:32;32.70;;;23.98;;
5967;SDS011;3010;51.028;4.170;2022-09-29T07:11:58;35.73;;;21.27;;
5967;SDS011;3010;51.028;4.170;2022-09-29T07:14:25;32.30;;;20.47;;
5967;SDS011;3010;51.028;4.170;2022-09-29T07:16:52;30.57;;;20.23;;
5967;SDS011;3010;51.028;4.170;2022-09-29T07:19:18;32.13;;;20.53;;
5967;SDS011;3010;51.028;4.170;2022-09-29T07:21:45;32.43;;;20.47;;
5967;SDS011;3010;51.028;4.170;2022-09-29T07:24:11;29.80;;;20.67;;
5967;SDS011;3010;51.028;4.170;2022-09-29T07:26:38;33.93;;;20.17;;
5967;SDS011;3010;51.028;4.170;2022-09-29T07:29:05;32.33;;;21.40;;
5967;SDS011;3010;51.028;4.170;2022-09-29T07:31:31;30.40;;;19.80;;
5967;SDS011;3010;51.028;4.170;2022-09-29T07:33:58;28.67;;;20.77;;
5967;SDS011;3010;51.028;4.170;2022-09-29T07:36:24;34.67;;;21.27;;
5967;SDS011;3010;51.028;4.170;2022-09-29T07:38:51;32.10;;;21.10;;
5967;SDS011;3010;51.028;4.170;2022-09-29T07:41:19;28.60;;;19.73;;
5967;SDS011;3010;51.028;4.170;2022-09-29T07:43:44;27.63;;;19.90;;
5967;SDS011;3010;51.028;4.170;2022-09-29T07:46:11;29.67;;;19.17;;
5967;SDS011;3010;51.028;4.170;2022-09-29T07:48:37;28.30;;;19.27;;
5967;SDS011;3010;51.028;4.170;2022-09-29T07:51:05;27.47;;;18.73;;
5967;SDS011;3010;51.028;4.170;2022-09-29T07:53:31;31.60;;;20.33;;
5967;SDS011;3010;51.028;4.170;2022-09-29T07:58:36;28.30;;;19.90;;
5967;SDS011;3010;51.028;4.170;2022-09-29T08:01:02;28.73;;;18.77;;
5967;SDS011;3010;51.028;4.170;2022-09-29T08:03:29;27.17;;;19.03;;
5967;SDS011;3010;51.028;4.170;2022-09-29T08:05:55;25.87;;;17.97;;
5967;SDS011;3010;51.028;4.170;2022-09-29T08:08:25;22.23;;;17.35;;
5967;SDS011;3010;51.028;4.170;2022-09-29T08:10:51;21.67;;;14.33;;
5967;SDS011;3010;51.028;4.170;2022-09-29T08:13:18;18.73;;;15.60;;
5967;SDS011;3010;51.028;4.170;2022-09-29T08:15:44;15.93;;;14.23;;
5967;SDS011;3010;51.028;4.170;2022-09-29T08:18:11;21.57;;;13.73;;
5967;SDS011;3010;51.028;4.170;2022-09-29T08:20:37;19.37;;;14.23;;
5967;SDS011;3010;51.028;4.170;2022-09-29T08:23:04;16.85;;;15.05;;
5967;SDS011;3010;51.028;4.170;2022-09-29T08:25:31;21.70;;;14.13;;
5967;SDS011;3010;51.028;4.170;2022-09-29T08:27:57;16.10;;;14.40;;
5967;SDS011;3010;51.028;4.170;2022-09-29T08:30:24;13.80;;;12.37;;
5967;SDS011;3010;51.028;4.170;2022-09-29T08:32:51;16.40;;;13.17;;
5967;SDS011;3010;51.028;4.170;2022-09-29T08:35:17;20.93;;;12.17;;
5967;SDS011;3010;51.028;4.170;2022-09-29T08:37:44;17.70;;;12.80;;
5967;SDS011;3010;51.028;4.170;2022-09-29T08:40:10;14.87;;;12.43;;
5967;SDS011;3010;51.028;4.170;2022-09-29T08:45:20;17.53;;;13.17;;
5967;SDS011;3010;51.028;4.170;2022-09-29T08:47:46;16.77;;;12.30;;
5967;SDS011;3010;51.028;4.170;2022-09-29T08:50:13;13.67;;;12.27;;
5967;SDS011;3010;51.028;4.170;2022-09-29T08:52:39;14.63;;;12.00;;
5967;SDS011;3010;51.028;4.170;2022-09-29T08:57:44;14.32;;;12.82;;
5967;SDS011;3010;51.028;4.170;2022-09-29T09:00:10;12.03;;;10.83;;
5967;SDS011;3010;51.028;4.170;2022-09-29T09:05:11;13.37;;;10.30;;
5967;SDS011;3010;51.028;4.170;2022-09-29T09:15:41;11.50;;;10.00;;
5967;SDS011;3010;51.028;4.170;2022-09-29T09:18:34;16.20;;;9.57;;
5967;SDS011;3010;51.028;4.170;2022-09-29T09:21:17;11.67;;;9.07;;
5967;SDS011;3010;51.028;4.170;2022-09-29T09:23:49;10.53;;;9.50;;
5967;SDS011;3010;51.028;4.170;2022-09-29T09:26:13;9.30;;;8.47;;
5967;SDS011;3010;51.028;4.170;2022-09-29T09:28:44;11.18;;;10.05;;
5967;SDS011;3010;51.028;4.170;2022-09-29T09:34:01;9.93;;;8.93;;
5967;SDS011;3010;51.028;4.170;2022-09-29T09:36:45;10.27;;;8.33;;
5967;SDS011;3010;51.028;4.170;2022-09-29T09:39:21;7.70;;;7.00;;
5967;SDS011;3010;51.028;4.170;2022-09-29T09:41:59;9.10;;;7.07;;
5967;SDS011;3010;51.028;4.170;2022-09-29T09:44:32;8.23;;;7.33;;
5967;SDS011;3010;51.028;4.170;2022-09-29T09:46:59;7.85;;;7.05;;
5967;SDS011;3010;51.028;4.170;2022-09-29T09:52:03;8.73;;;6.67;;
5967;SDS011;3010;51.028;4.170;2022-09-29T09:54:32;7.90;;;6.33;;
5967;SDS011;3010;51.028;4.170;2022-09-29T10:02:31;6.53;;;5.93;;
5967;SDS011;3010;51.028;4.170;2022-09-29T10:04:57;6.83;;;5.90;;
5967;SDS011;3010;51.028;4.170;2022-09-29T10:07:24;6.57;;;5.97;;
5967;SDS011;3010;51.028;4.170;2022-09-29T10:09:50;7.07;;;5.73;;
5967;SDS011;3010;51.028;4.170;2022-09-29T10:12:18;6.03;;;5.30;;
5967;SDS011;3010;51.028;4.170;2022-09-29T10:14:47;5.73;;;5.13;;
5967;SDS011;3010;51.028;4.170;2022-09-29T10:17:10;4.37;;;4.13;;
5967;SDS011;3010;51.028;4.170;2022-09-29T10:19:54;4.30;;;3.33;;
5967;SDS011;3010;51.028;4.170;2022-09-29T10:22:31;3.97;;;3.70;;
5967;SDS011;3010;51.028;4.170;2022-09-29T10:27:40;3.27;;;3.03;;
5967;SDS011;3010;51.028;4.170;2022-09-29T10:30:14;4.13;;;2.93;;
5967;SDS011;3010;51.028;4.170;2022-09-29T10:32:33;4.17;;;3.00;;
5967;SDS011;3010;51.028;4.170;2022-09-29T10:35:48;3.00;;;2.80;;
5967;SDS011;3010;51.028;4.170;2022-09-29T10:37:38;2.20;;;2.20;;
5967;SDS011;3010;51.028;4.170;2022-09-29T10:42:34;5.70;;;2.90;;
5967;SDS011;3010;51.028;4.170;2022-09-29T10:45:07;2.80;;;2.70;;
5967;SDS011;3010;51.028;4.170;2022-09-29T10:47:27;2.53;;;2.33;;
5967;SDS011;3010;51.028;4.170;2022-09-29T10:50:10;2.30;;;2.20;;
5967;SDS011;3010;51.028;4.170;2022-09-29T10:52:42;3.80;;;1.87;;
5967;SDS011;3010;51.028;4.170;2022-09-29T10:55:14;1.57;;;1.57;;
5967;SDS011;3010;51.028;4.170;2022-09-29T10:57:34;1.80;;;1.70;;
5967;SDS011;3010;51.028;4.170;2022-09-29T11:00:02;2.00;;;1.50;;
5967;SDS011;3010;51.028;4.170;2022-09-29T11:02:38;1.80;;;1.70;;
5967;SDS011;3010;51.028;4.170;2022-09-29T11:05:13;2.53;;;2.33;;
5967;SDS011;3010;51.028;4.170;2022-09-29T11:07:30;1.87;;;1.77;;
5967;SDS011;3010;51.028;4.170;2022-09-29T11:09:56;1.30;;;1.30;;
5967;SDS011;3010;51.028;4.170;2022-09-29T11:14:55;0.98;;;0.98;;
5967;SDS011;3010;51.028;4.170;2022-09-29T11:19:52;1.67;;;1.57;;
5967;SDS011;3010;51.028;4.170;2022-09-29T11:30:23;1.30;;;1.20;;
5967;SDS011;3010;51.028;4.170;2022-09-29T11:38:37;1.07;;;1.07;;
5967;SDS011;3010;51.028;4.170;2022-09-29T11:43:52;1.80;;;1.07;;
5967;SDS011;3010;51.028;4.170;2022-09-29T11:46:49;1.10;;;1.10;;
5967;SDS011;3010;51.028;4.170;2022-09-29T11:51:55;0.93;;;0.93;;
5967;SDS011;3010;51.028;4.170;2022-09-29T11:54:31;1.80;;;1.13;;
5967;SDS011;3010;51.028;4.170;2022-09-29T11:57:13;1.00;;;1.00;;
5967;SDS011;3010;51.028;4.170;2022-09-29T12:00:00;1.00;;;1.00;;
5967;SDS011;3010;51.028;4.170;2022-09-29T12:03:02;0.90;;;0.90;;
5967;SDS011;3010;51.028;4.170;2022-09-29T12:11:33;0.90;;;0.90;;
5967;SDS011;3010;51.028;4.170;2022-09-29T12:14:19;1.03;;;1.03;;
5967;SDS011;3010;51.028;4.170;2022-09-29T12:17:00;1.07;;;1.00;;
5967;SDS011;3010;51.028;4.170;2022-09-29T12:19:26;1.20;;;1.20;;
5967;SDS011;3010;51.028;4.170;2022-09-29T12:21:52;1.30;;;1.20;;
5967;SDS011;3010;51.028;4.170;2022-09-29T12:24:21;1.40;;;1.30;;
5967;SDS011;3010;51.028;4.170;2022-09-29T12:26:49;0.77;;;0.77;;
5967;SDS011;3010;51.028;4.170;2022-09-29T12:29:21;1.23;;;1.00;;
5967;SDS011;3010;51.028;4.170;2022-09-29T12:31:48;1.40;;;1.40;;
5967;SDS011;3010;51.028;4.170;2022-09-29T12:34:24;2.40;;;2.23;;
5967;SDS011;3010;51.028;4.170;2022-09-29T12:36:48;1.40;;;1.30;;
5967;SDS011;3010;51.028;4.170;2022-09-29T12:39:25;1.60;;;1.53;;
5967;SDS011;3010;51.028;4.170;2022-09-29T12:44:50;2.20;;;1.10;;
5967;SDS011;3010;51.028;4.170;2022-09-29T12:47:18;1.00;;;1.00;;
5967;SDS011;3010;51.028;4.170;2022-09-29T12:52:40;3.28;;;3.15;;
5967;SDS011;3010;51.028;4.170;2022-09-29T12:55:07;2.27;;;2.27;;
5967;SDS011;3010;51.028;4.170;2022-09-29T12:57:37;4.23;;;3.93;;
5967;SDS011;3010;51.028;4.170;2022-09-29T13:02:41;2.60;;;2.50;;
5967;SDS011;3010;51.028;4.170;2022-09-29T13:08:50;4.57;;;3.73;;
5967;SDS011;3010;51.028;4.170;2022-09-29T13:10:43;4.07;;;3.87;;
5967;SDS011;3010;51.028;4.170;2022-09-29T13:16:16;3.87;;;3.70;;
5967;SDS011;3010;51.028;4.170;2022-09-29T13:29:57;2.60;;;2.47;;
5967;SDS011;3010;51.028;4.170;2022-09-29T13:32:31;2.13;;;2.03;;
5967;SDS011;3010;51.028;4.170;2022-09-29T13:34:58;1.93;;;1.83;;
5967;SDS011;3010;51.028;4.170;2022-09-29T13:37:25;2.17;;;2.00;;
5967;SDS011;3010;51.028;4.170;2022-09-29T13:39:55;3.30;;;2.00;;
5967;SDS011;3010;51.028;4.170;2022-09-29T13:42:31;3.17;;;2.00;;
5967;SDS011;3010;51.028;4.170;2022-09-29T13:47:44;2.30;;;2.20;;
5967;SDS011;3010;51.028;4.170;2022-09-29T13:53:36;1.90;;;1.80;;
5967;SDS011;3010;51.028;4.170;2022-09-29T13:55:54;1.70;;;1.60;;
5967;SDS011;3010;51.028;4.170;2022-09-29T13:58:38;2.00;;;1.90;;
5967;SDS011;3010;51.028;4.170;2022-09-29T14:01:09;2.40;;;1.70;;
5967;SDS011;3010;51.028;4.170;2022-09-29T14:08:28;2.47;;;2.07;;
5967;SDS011;3010;51.028;4.170;2022-09-29T14:10:59;3.43;;;2.30;;
5967;SDS011;3010;51.028;4.170;2022-09-29T14:13:28;4.33;;;2.00;;
5967;SDS011;3010;51.028;4.170;2022-09-29T14:16:17;2.83;;;2.47;;
5967;SDS011;3010;51.028;4.170;2022-09-29T14:18:30;3.03;;;2.50;;
5967;SDS011;3010;51.028;4.170;2022-09-29T14:20:58;2.57;;;2.20;;
5967;SDS011;3010;51.028;4.170;2022-09-29T14:24:39;5.90;;;2.70;;
5967;SDS011;3010;51.028;4.170;2022-09-29T14:26:38;4.03;;;2.43;;
5967;SDS011;3010;51.028;4.170;2022-09-29T14:28:34;2.70;;;2.27;;
5967;SDS011;3010;51.028;4.170;2022-09-29T14:30:59;2.80;;;2.20;;
5967;SDS011;3010;51.028;4.170;2022-09-29T14:33:35;1.87;;;1.70;;
5967;SDS011;3010;51.028;4.170;2022-09-29T14:36:05;1.60;;;1.60;;
5967;SDS011;3010;51.028;4.170;2022-09-29T14:38:32;2.70;;;1.70;;
5967;SDS011;3010;51.028;4.170;2022-09-29T14:46:21;1.00;;;0.90;;
5967;SDS011;3010;51.028;4.170;2022-09-29T14:54:43;0.90;;;0.90;;
5967;SDS011;3010;51.028;4.170;2022-09-29T14:57:22;1.27;;;0.90;;
5967;SDS011;3010;51.028;4.170;2022-09-29T15:00:07;1.90;;;1.53;;
5967;SDS011;3010;51.028;4.170;2022-09-29T15:02:30;0.70;;;0.70;;
5967;SDS011;3010;51.028;4.170;2022-09-29T15:04:56;1.30;;;0.73;;
5967;SDS011;3010;51.028;4.170;2022-09-29T15:07:24;0.60;;;0.60;;
5967;SDS011;3010;51.028;4.170;2022-09-29T15:09:51;0.80;;;0.80;;
5967;SDS011;3010;51.028;4.170;2022-09-29T15:12:20;0.60;;;0.60;;
5967;SDS011;3010;51.028;4.170;2022-09-29T15:14:45;0.60;;;0.60;;
5967;SDS011;3010;51.028;4.170;2022-09-29T15:25:09;1.20;;;1.10;;
5967;SDS011;3010;51.028;4.170;2022-09-29T15:27:33;0.60;;;0.60;;
5967;SDS011;3010;51.028;4.170;2022-09-29T15:29:59;0.67;;;0.67;;
5967;SDS011;3010;51.028;4.170;2022-09-29T15:32:27;0.70;;;0.60;;
5967;SDS011;3010;51.028;4.170;2022-09-29T15:34:53;0.80;;;0.80;;
5967;SDS011;3010;51.028;4.170;2022-09-29T15:37:19;1.00;;;1.00;;
5967;SDS011;3010;51.028;4.170;2022-09-29T15:39:50;0.90;;;0.90;;
5967;SDS011;3010;51.028;4.170;2022-09-29T15:42:18;0.87;;;0.87;;
5967;SDS011;3010;51.028;4.170;2022-09-29T15:44:45;1.47;;;1.00;;
5967;SDS011;3010;51.028;4.170;2022-09-29T15:47:33;1.07;;;0.80;;
5967;SDS011;3010;51.028;4.170;2022-09-29T15:49:50;1.10;;;1.10;;
5967;SDS011;3010;51.028;4.170;2022-09-29T15:52:16;0.90;;;0.90;;
5967;SDS011;3010;51.028;4.170;2022-09-29T15:54:42;1.60;;;1.10;;
5967;SDS011;3010;51.028;4.170;2022-09-29T15:57:29;5.13;;;1.27;;
5967;SDS011;3010;51.028;4.170;2022-09-29T16:05:18;1.70;;;1.23;;
5967;SDS011;3010;51.028;4.170;2022-09-29T16:08:03;2.30;;;1.30;;
5967;SDS011;3010;51.028;4.170;2022-09-29T16:10:33;1.00;;;1.00;;
5967;SDS011;3010;51.028;4.170;2022-09-29T16:12:59;2.47;;;1.30;;
5967;SDS011;3010;51.028;4.170;2022-09-29T16:15:28;1.83;;;1.13;;
5967;SDS011;3010;51.028;4.170;2022-09-29T16:17:54;1.50;;;1.40;;
5967;SDS011;3010;51.028;4.170;2022-09-29T16:20:30;1.00;;;1.00;;
5967;SDS011;3010;51.028;4.170;2022-09-29T16:22:56;2.17;;;1.40;;
5967;SDS011;3010;51.028;4.170;2022-09-29T16:25:24;1.50;;;1.30;;
5967;SDS011;3010;51.028;4.170;2022-09-29T16:27:56;1.50;;;1.40;;
5967;SDS011;3010;51.028;4.170;2022-09-29T16:30:26;3.43;;;1.50;;
5967;SDS011;3010;51.028;4.170;2022-09-29T16:35:55;2.17;;;1.40;;
5967;SDS011;3010;51.028;4.170;2022-09-29T16:40:53;2.60;;;1.90;;
5967;SDS011;3010;51.028;4.170;2022-09-29T16:43:27;1.50;;;1.40;;
5967;SDS011;3010;51.028;4.170;2022-09-29T16:45:55;1.70;;;1.60;;
5967;SDS011;3010;51.028;4.170;2022-09-29T16:48:24;1.50;;;1.40;;
5967;SDS011;3010;51.028;4.170;2022-09-29T16:50:56;1.57;;;1.27;;
5967;SDS011;3010;51.028;4.170;2022-09-29T16:53:24;1.97;;;1.77;;
5967;SDS011;3010;51.028;4.170;2022-09-29T16:58:28;3.43;;;1.83;;
5967;SDS011;3010;51.028;4.170;2022-09-29T17:00:54;1.70;;;1.60;;
5967;SDS011;3010;51.028;4.170;2022-09-29T17:03:21;2.00;;;1.90;;
5967;SDS011;3010;51.028;4.170;2022-09-29T17:05:47;4.57;;;2.00;;
5967;SDS011;3010;51.028;4.170;2022-09-29T17:08:15;2.10;;;1.90;;
5967;SDS011;3010;51.028;4.170;2022-09-29T17:10:40;3.63;;;2.40;;
5967;SDS011;3010;51.028;4.170;2022-09-29T17:13:11;3.70;;;2.03;;
5967;SDS011;3010;51.028;4.170;2022-09-29T17:15:33;3.40;;;3.17;;
5967;SDS011;3010;51.028;4.170;2022-09-29T17:18:00;3.55;;;3.10;;
5967;SDS011;3010;51.028;4.170;2022-09-29T17:20:27;3.12;;;2.90;;
5967;SDS011;3010;51.028;4.170;2022-09-29T17:22:56;2.80;;;2.60;;
5967;SDS011;3010;51.028;4.170;2022-09-29T17:25:22;4.87;;;2.67;;
5967;SDS011;3010;51.028;4.170;2022-09-29T17:27:49;4.83;;;2.80;;
5967;SDS011;3010;51.028;4.170;2022-09-29T17:30:34;4.87;;;2.97;;
5967;SDS011;3010;51.028;4.170;2022-09-29T17:33:01;4.53;;;3.23;;
5967;SDS011;3010;51.028;4.170;2022-09-29T17:35:28;3.23;;;2.93;;
5967;SDS011;3010;51.028;4.170;2022-09-29T17:37:54;5.53;;;3.07;;
5967;SDS011;3010;51.028;4.170;2022-09-29T17:40:34;5.17;;;3.63;;
5967;SDS011;3010;51.028;4.170;2022-09-29T17:42:59;5.20;;;3.57;;
5967;SDS011;3010;51.028;4.170;2022-09-29T17:45:27;3.00;;;2.77;;
5967;SDS011;3010;51.028;4.170;2022-09-29T17:47:52;5.17;;;3.40;;